Tokeland, Washington
Current Conditions -  °F | °C
As of 1:33 PM on Saturday 20 Dec 2014 (Local Time) from KHQM Reporting Station
Light Rain Light Rain  
Wind Chill: 54°   Ceiling: 800
Heat Index: 54°   Visibility: 0.75mi
Dew Point: 54°   Wind: 20mph
Humidity: 100%   Direction: 190°S
Pressure: 29.49"   Gusts: NA
Location:  46.71°N, 123.98°W
Report Text: KHQM 202133Z AUTO 19017KT 3/4SM -RA BR OVC008 12/12 A2949 RMK AO2 P0003 T01220122
Loading
Personal Weather Stations






























Interactive Weather Map New forecast layout! Learn more

10-Day Weather Forecast

Advertisements
Track Severe Weather on mobile